sensor_id;sensor_type;location;lat;lon;timestamp;P1;durP1;ratioP1;P2;durP2;ratioP2
7737;SDS011;29398;45.328;5.558;2023-03-29T00:00:59;10.02;;;6.40;;
7737;SDS011;29398;45.328;5.558;2023-03-29T00:02:00;7.53;;;5.50;;
7737;SDS011;29398;45.328;5.558;2023-03-29T00:03:02;7.80;;;5.22;;
7737;SDS011;29398;45.328;5.558;2023-03-29T00:04:04;6.55;;;5.47;;
7737;SDS011;29398;45.328;5.558;2023-03-29T00:05:07;6.40;;;4.97;;
7737;SDS011;29398;45.328;5.558;2023-03-29T00:06:08;7.03;;;5.50;;
7737;SDS011;29398;45.328;5.558;2023-03-29T00:07:14;7.18;;;5.15;;
7737;SDS011;29398;45.328;5.558;2023-03-29T00:08:16;5.60;;;5.07;;
7737;SDS011;29398;45.328;5.558;2023-03-29T00:09:21;7.72;;;5.18;;
7737;SDS011;29398;45.328;5.558;2023-03-29T00:10:22;7.40;;;4.97;;
7737;SDS011;29398;45.328;5.558;2023-03-29T00:11:24;8.98;;;5.68;;
7737;SDS011;29398;45.328;5.558;2023-03-29T00:12:26;6.65;;;4.93;;
7737;SDS011;29398;45.328;5.558;2023-03-29T00:13:28;6.60;;;4.90;;
7737;SDS011;29398;45.328;5.558;2023-03-29T00:14:30;5.95;;;4.95;;
7737;SDS011;29398;45.328;5.558;2023-03-29T00:15:32;8.00;;;5.38;;
7737;SDS011;29398;45.328;5.558;2023-03-29T00:16:33;6.43;;;4.88;;
7737;SDS011;29398;45.328;5.558;2023-03-29T00:17:35;6.88;;;5.18;;
7737;SDS011;29398;45.328;5.558;2023-03-29T00:18:36;7.00;;;5.32;;
7737;SDS011;29398;45.328;5.558;2023-03-29T00:19:38;6.00;;;5.40;;
7737;SDS011;29398;45.328;5.558;2023-03-29T00:20:39;6.65;;;5.32;;
7737;SDS011;29398;45.328;5.558;2023-03-29T00:21:41;7.20;;;4.47;;
7737;SDS011;29398;45.328;5.558;2023-03-29T00:22:43;6.20;;;4.10;;
7737;SDS011;29398;45.328;5.558;2023-03-29T00:23:47;4.72;;;3.60;;
7737;SDS011;29398;45.328;5.558;2023-03-29T00:24:51;5.65;;;3.92;;
7737;SDS011;29398;45.328;5.558;2023-03-29T00:25:53;4.55;;;3.58;;
7737;SDS011;29398;45.328;5.558;2023-03-29T00:26:55;5.05;;;3.50;;
7737;SDS011;29398;45.328;5.558;2023-03-29T00:27:57;5.90;;;3.75;;
7737;SDS011;29398;45.328;5.558;2023-03-29T00:28:58;6.75;;;3.88;;
7737;SDS011;29398;45.328;5.558;2023-03-29T00:30:00;8.25;;;4.15;;
7737;SDS011;29398;45.328;5.558;2023-03-29T00:31:05;7.28;;;4.60;;
7737;SDS011;29398;45.328;5.558;2023-03-29T00:32:08;7.05;;;4.35;;
7737;SDS011;29398;45.328;5.558;2023-03-29T00:33:11;6.00;;;4.13;;
7737;SDS011;29398;45.328;5.558;2023-03-29T00:34:16;8.55;;;3.80;;
7737;SDS011;29398;45.328;5.558;2023-03-29T00:35:17;5.78;;;4.10;;
7737;SDS011;29398;45.328;5.558;2023-03-29T00:36:19;6.95;;;3.53;;
7737;SDS011;29398;45.328;5.558;2023-03-29T00:37:21;5.15;;;3.63;;
7737;SDS011;29398;45.328;5.558;2023-03-29T00:38:26;5.15;;;3.90;;
7737;SDS011;29398;45.328;5.558;2023-03-29T00:39:28;6.30;;;3.85;;
7737;SDS011;29398;45.328;5.558;2023-03-29T00:40:31;7.45;;;3.67;;
7737;SDS011;29398;45.328;5.558;2023-03-29T00:41:32;6.03;;;3.75;;
7737;SDS011;29398;45.328;5.558;2023-03-29T00:42:35;9.95;;;4.78;;
7737;SDS011;29398;45.328;5.558;2023-03-29T00:43:56;6.88;;;3.95;;
7737;SDS011;29398;45.328;5.558;2023-03-29T00:45:01;6.20;;;3.45;;
7737;SDS011;29398;45.328;5.558;2023-03-29T00:46:04;7.90;;;3.95;;
7737;SDS011;29398;45.328;5.558;2023-03-29T00:47:06;6.05;;;4.10;;
7737;SDS011;29398;45.328;5.558;2023-03-29T00:48:08;6.45;;;3.70;;
7737;SDS011;29398;45.328;5.558;2023-03-29T00:49:12;5.47;;;3.95;;
7737;SDS011;29398;45.328;5.558;2023-03-29T00:50:15;7.05;;;3.80;;
7737;SDS011;29398;45.328;5.558;2023-03-29T00:51:23;6.75;;;4.32;;
7737;SDS011;29398;45.328;5.558;2023-03-29T00:52:29;7.03;;;4.47;;
7737;SDS011;29398;45.328;5.558;2023-03-29T00:53:32;9.73;;;5.13;;
7737;SDS011;29398;45.328;5.558;2023-03-29T00:54:39;5.90;;;4.22;;
7737;SDS011;29398;45.328;5.558;2023-03-29T00:55:45;6.43;;;4.63;;
7737;SDS011;29398;45.328;5.558;2023-03-29T00:56:51;6.07;;;4.82;;
7737;SDS011;29398;45.328;5.558;2023-03-29T00:57:54;5.80;;;4.47;;
7737;SDS011;29398;45.328;5.558;2023-03-29T00:58:58;7.50;;;4.47;;
7737;SDS011;29398;45.328;5.558;2023-03-29T01:00:05;6.40;;;4.47;;
7737;SDS011;29398;45.328;5.558;2023-03-29T01:01:09;11.32;;;5.85;;
7737;SDS011;29398;45.328;5.558;2023-03-29T01:02:20;11.32;;;5.80;;
7737;SDS011;29398;45.328;5.558;2023-03-29T01:03:25;8.38;;;5.90;;
7737;SDS011;29398;45.328;5.558;2023-03-29T01:04:32;7.85;;;5.45;;
7737;SDS011;29398;45.328;5.558;2023-03-29T01:05:36;7.85;;;5.00;;
7737;SDS011;29398;45.328;5.558;2023-03-29T01:06:41;8.07;;;4.63;;
7737;SDS011;29398;45.328;5.558;2023-03-29T01:07:47;4.70;;;4.10;;
7737;SDS011;29398;45.328;5.558;2023-03-29T01:08:55;4.72;;;3.75;;
7737;SDS011;29398;45.328;5.558;2023-03-29T01:10:03;5.00;;;3.47;;
7737;SDS011;29398;45.328;5.558;2023-03-29T01:11:11;4.50;;;3.47;;
7737;SDS011;29398;45.328;5.558;2023-03-29T01:12:18;6.35;;;3.67;;
7737;SDS011;29398;45.328;5.558;2023-03-29T01:13:24;5.78;;;3.80;;
7737;SDS011;29398;45.328;5.558;2023-03-29T01:14:33;8.07;;;3.90;;
7737;SDS011;29398;45.328;5.558;2023-03-29T01:15:39;5.22;;;3.50;;
7737;SDS011;29398;45.328;5.558;2023-03-29T01:16:44;5.22;;;3.80;;
7737;SDS011;29398;45.328;5.558;2023-03-29T01:17:46;5.38;;;3.70;;
7737;SDS011;29398;45.328;5.558;2023-03-29T01:18:50;5.03;;;3.63;;
7737;SDS011;29398;45.328;5.558;2023-03-29T01:19:54;5.10;;;3.40;;
7737;SDS011;29398;45.328;5.558;2023-03-29T01:21:05;5.22;;;2.90;;
7737;SDS011;29398;45.328;5.558;2023-03-29T01:22:16;4.30;;;3.10;;
7737;SDS011;29398;45.328;5.558;2023-03-29T01:23:32;3.95;;;2.90;;
7737;SDS011;29398;45.328;5.558;2023-03-29T01:24:50;4.35;;;3.20;;
7737;SDS011;29398;45.328;5.558;2023-03-29T01:26:03;7.88;;;3.70;;
7737;SDS011;29398;45.328;5.558;2023-03-29T01:27:14;5.43;;;3.28;;
7737;SDS011;29398;45.328;5.558;2023-03-29T01:28:24;3.45;;;2.33;;
7737;SDS011;29398;45.328;5.558;2023-03-29T01:29:30;5.18;;;2.92;;
7737;SDS011;29398;45.328;5.558;2023-03-29T01:30:36;4.57;;;2.75;;
7737;SDS011;29398;45.328;5.558;2023-03-29T01:31:44;7.03;;;2.50;;
7737;SDS011;29398;45.328;5.558;2023-03-29T01:32:55;3.85;;;2.63;;
7737;SDS011;29398;45.328;5.558;2023-03-29T01:34:04;6.07;;;2.83;;
7737;SDS011;29398;45.328;5.558;2023-03-29T01:35:12;4.10;;;3.00;;
7737;SDS011;29398;45.328;5.558;2023-03-29T01:36:19;3.40;;;2.40;;
7737;SDS011;29398;45.328;5.558;2023-03-29T01:37:27;5.28;;;2.53;;
7737;SDS011;29398;45.328;5.558;2023-03-29T01:38:33;4.38;;;2.65;;
7737;SDS011;29398;45.328;5.558;2023-03-29T01:39:41;2.80;;;2.10;;
7737;SDS011;29398;45.328;5.558;2023-03-29T01:40:43;5.50;;;2.08;;
7737;SDS011;29398;45.328;5.558;2023-03-29T01:41:45;3.80;;;2.45;;
7737;SDS011;29398;45.328;5.558;2023-03-29T01:42:53;3.13;;;2.20;;
7737;SDS011;29398;45.328;5.558;2023-03-29T01:44:04;4.28;;;2.88;;
7737;SDS011;29398;45.328;5.558;2023-03-29T01:45:13;4.00;;;3.00;;
7737;SDS011;29398;45.328;5.558;2023-03-29T01:46:23;4.85;;;3.22;;
7737;SDS011;29398;45.328;5.558;2023-03-29T01:47:33;4.15;;;3.40;;
7737;SDS011;29398;45.328;5.558;2023-03-29T01:48:45;5.40;;;3.35;;
7737;SDS011;29398;45.328;5.558;2023-03-29T01:49:52;3.22;;;2.92;;
7737;SDS011;29398;45.328;5.558;2023-03-29T01:51:03;5.30;;;3.28;;
7737;SDS011;29398;45.328;5.558;2023-03-29T01:52:10;3.55;;;3.20;;
7737;SDS011;29398;45.328;5.558;2023-03-29T01:53:15;3.50;;;2.92;;
7737;SDS011;29398;45.328;5.558;2023-03-29T01:54:24;3.80;;;3.28;;
7737;SDS011;29398;45.328;5.558;2023-03-29T01:55:31;4.93;;;3.83;;
7737;SDS011;29398;45.328;5.558;2023-03-29T01:56:38;5.15;;;3.50;;
7737;SDS011;29398;45.328;5.558;2023-03-29T01:57:41;5.50;;;3.97;;
7737;SDS011;29398;45.328;5.558;2023-03-29T01:58:46;5.75;;;3.38;;
7737;SDS011;29398;45.328;5.558;2023-03-29T01:59:52;6.57;;;3.30;;
7737;SDS011;29398;45.328;5.558;2023-03-29T02:00:57;6.32;;;3.55;;
7737;SDS011;29398;45.328;5.558;2023-03-29T02:02:01;4.60;;;3.08;;
7737;SDS011;29398;45.328;5.558;2023-03-29T02:03:06;4.43;;;3.20;;
7737;SDS011;29398;45.328;5.558;2023-03-29T02:04:10;4.68;;;3.13;;
7737;SDS011;29398;45.328;5.558;2023-03-29T02:05:14;5.93;;;3.15;;
7737;SDS011;29398;45.328;5.558;2023-03-29T02:06:17;4.05;;;3.08;;
7737;SDS011;29398;45.328;5.558;2023-03-29T02:07:23;7.65;;;3.33;;
7737;SDS011;29398;45.328;5.558;2023-03-29T02:08:29;5.97;;;4.03;;
7737;SDS011;29398;45.328;5.558;2023-03-29T02:09:32;5.70;;;3.78;;
7737;SDS011;29398;45.328;5.558;2023-03-29T02:10:37;4.68;;;3.05;;
7737;SDS011;29398;45.328;5.558;2023-03-29T02:11:40;3.72;;;3.20;;
7737;SDS011;29398;45.328;5.558;2023-03-29T02:12:42;3.88;;;3.13;;
7737;SDS011;29398;45.328;5.558;2023-03-29T02:13:44;3.67;;;3.20;;
7737;SDS011;29398;45.328;5.558;2023-03-29T02:14:47;4.07;;;2.90;;
7737;SDS011;29398;45.328;5.558;2023-03-29T02:15:51;5.95;;;3.38;;
7737;SDS011;29398;45.328;5.558;2023-03-29T02:16:53;3.80;;;3.03;;
7737;SDS011;29398;45.328;5.558;2023-03-29T02:17:55;5.47;;;3.40;;
7737;SDS011;29398;45.328;5.558;2023-03-29T02:18:57;4.30;;;3.08;;
7737;SDS011;29398;45.328;5.558;2023-03-29T02:20:00;3.25;;;2.80;;
7737;SDS011;29398;45.328;5.558;2023-03-29T02:21:14;5.63;;;3.17;;
7737;SDS011;29398;45.328;5.558;2023-03-29T02:22:21;5.10;;;3.45;;
7737;SDS011;29398;45.328;5.558;2023-03-29T02:23:27;5.30;;;3.15;;
7737;SDS011;29398;45.328;5.558;2023-03-29T02:24:34;4.63;;;3.40;;
7737;SDS011;29398;45.328;5.558;2023-03-29T02:25:38;4.25;;;3.50;;
7737;SDS011;29398;45.328;5.558;2023-03-29T02:26:42;5.25;;;3.33;;
7737;SDS011;29398;45.328;5.558;2023-03-29T02:27:43;5.50;;;3.40;;
7737;SDS011;29398;45.328;5.558;2023-03-29T02:28:45;4.20;;;3.25;;
7737;SDS011;29398;45.328;5.558;2023-03-29T02:29:48;3.67;;;3.30;;
7737;SDS011;29398;45.328;5.558;2023-03-29T02:30:52;5.00;;;3.28;;
7737;SDS011;29398;45.328;5.558;2023-03-29T02:31:57;4.25;;;2.88;;
7737;SDS011;29398;45.328;5.558;2023-03-29T02:33:05;4.40;;;3.08;;
7737;SDS011;29398;45.328;5.558;2023-03-29T02:34:13;3.63;;;2.95;;
7737;SDS011;29398;45.328;5.558;2023-03-29T02:35:23;3.40;;;2.80;;
7737;SDS011;29398;45.328;5.558;2023-03-29T02:36:34;3.45;;;2.78;;
7737;SDS011;29398;45.328;5.558;2023-03-29T02:37:40;2.75;;;2.50;;
7737;SDS011;29398;45.328;5.558;2023-03-29T02:38:44;3.85;;;2.90;;
7737;SDS011;29398;45.328;5.558;2023-03-29T02:39:46;5.40;;;3.03;;
7737;SDS011;29398;45.328;5.558;2023-03-29T02:40:51;5.88;;;3.55;;
7737;SDS011;29398;45.328;5.558;2023-03-29T02:41:54;5.22;;;2.90;;
7737;SDS011;29398;45.328;5.558;2023-03-29T02:42:58;4.47;;;2.97;;
7737;SDS011;29398;45.328;5.558;2023-03-29T02:44:01;4.63;;;2.80;;
7737;SDS011;29398;45.328;5.558;2023-03-29T02:45:08;4.60;;;3.30;;
7737;SDS011;29398;45.328;5.558;2023-03-29T02:46:12;3.88;;;2.75;;
7737;SDS011;29398;45.328;5.558;2023-03-29T02:47:18;4.32;;;3.17;;
7737;SDS011;29398;45.328;5.558;2023-03-29T02:48:22;5.00;;;3.50;;
7737;SDS011;29398;45.328;5.558;2023-03-29T02:49:26;3.53;;;3.20;;
7737;SDS011;29398;45.328;5.558;2023-03-29T02:50:30;6.55;;;3.53;;
7737;SDS011;29398;45.328;5.558;2023-03-29T02:51:36;5.50;;;3.47;;
7737;SDS011;29398;45.328;5.558;2023-03-29T02:52:39;4.38;;;3.45;;
7737;SDS011;29398;45.328;5.558;2023-03-29T02:53:47;5.63;;;3.83;;
7737;SDS011;29398;45.328;5.558;2023-03-29T02:54:52;4.78;;;3.58;;
7737;SDS011;29398;45.328;5.558;2023-03-29T02:55:56;5.30;;;4.05;;
7737;SDS011;29398;45.328;5.558;2023-03-29T02:56:57;7.03;;;4.63;;
7737;SDS011;29398;45.328;5.558;2023-03-29T02:58:01;4.55;;;3.78;;
7737;SDS011;29398;45.328;5.558;2023-03-29T02:59:07;5.53;;;3.65;;
7737;SDS011;29398;45.328;5.558;2023-03-29T03:00:11;6.22;;;3.35;;
7737;SDS011;29398;45.328;5.558;2023-03-29T03:01:15;4.20;;;3.40;;
7737;SDS011;29398;45.328;5.558;2023-03-29T03:02:19;4.85;;;3.42;;
7737;SDS011;29398;45.328;5.558;2023-03-29T03:03:20;4.47;;;3.40;;
7737;SDS011;29398;45.328;5.558;2023-03-29T03:04:23;4.68;;;3.50;;
7737;SDS011;29398;45.328;5.558;2023-03-29T03:05:25;7.00;;;3.80;;
7737;SDS011;29398;45.328;5.558;2023-03-29T03:06:27;4.63;;;3.72;;
7737;SDS011;29398;45.328;5.558;2023-03-29T03:07:29;4.65;;;3.35;;
7737;SDS011;29398;45.328;5.558;2023-03-29T03:08:30;3.47;;;2.97;;
7737;SDS011;29398;45.328;5.558;2023-03-29T03:09:32;4.95;;;3.45;;
7737;SDS011;29398;45.328;5.558;2023-03-29T03:10:35;6.25;;;3.55;;
7737;SDS011;29398;45.328;5.558;2023-03-29T03:11:38;5.38;;;3.60;;
7737;SDS011;29398;45.328;5.558;2023-03-29T03:12:39;5.35;;;3.40;;
7737;SDS011;29398;45.328;5.558;2023-03-29T03:13:41;4.80;;;3.38;;
7737;SDS011;29398;45.328;5.558;2023-03-29T03:14:42;4.40;;;3.25;;
7737;SDS011;29398;45.328;5.558;2023-03-29T03:15:44;7.00;;;3.75;;
7737;SDS011;29398;45.328;5.558;2023-03-29T03:16:49;4.47;;;3.60;;
7737;SDS011;29398;45.328;5.558;2023-03-29T03:17:52;5.65;;;3.83;;
7737;SDS011;29398;45.328;5.558;2023-03-29T03:18:53;5.32;;;3.42;;
7737;SDS011;29398;45.328;5.558;2023-03-29T03:19:55;3.92;;;3.40;;
7737;SDS011;29398;45.328;5.558;2023-03-29T03:20:57;4.28;;;3.53;;
7737;SDS011;29398;45.328;5.558;2023-03-29T03:22:01;4.60;;;3.20;;
7737;SDS011;29398;45.328;5.558;2023-03-29T03:23:02;3.92;;;3.40;;
7737;SDS011;29398;45.328;5.558;2023-03-29T03:24:05;5.20;;;3.65;;
7737;SDS011;29398;45.328;5.558;2023-03-29T03:25:07;3.92;;;3.55;;
7737;SDS011;29398;45.328;5.558;2023-03-29T03:26:11;4.78;;;3.55;;
7737;SDS011;29398;45.328;5.558;2023-03-29T03:27:14;4.95;;;3.67;;
7737;SDS011;29398;45.328;5.558;2023-03-29T03:28:17;4.95;;;3.22;;
7737;SDS011;29398;45.328;5.558;2023-03-29T03:29:19;4.93;;;3.58;;
7737;SDS011;29398;45.328;5.558;2023-03-29T03:30:33;5.35;;;3.47;;
7737;SDS011;29398;45.328;5.558;2023-03-29T03:31:54;6.95;;;3.63;;
7737;SDS011;29398;45.328;5.558;2023-03-29T03:33:14;4.78;;;3.40;;
7737;SDS011;29398;45.328;5.558;2023-03-29T03:34:22;4.47;;;3.80;;
7737;SDS011;29398;45.328;5.558;2023-03-29T03:35:30;5.30;;;3.75;;
7737;SDS011;29398;45.328;5.558;2023-03-29T03:36:31;6.15;;;3.50;;
7737;SDS011;29398;45.328;5.558;2023-03-29T03:37:34;4.53;;;3.45;;
7737;SDS011;29398;45.328;5.558;2023-03-29T03:38:38;5.22;;;3.65;;
7737;SDS011;29398;45.328;5.558;2023-03-29T03:39:41;5.85;;;3.75;;
7737;SDS011;29398;45.328;5.558;2023-03-29T03:40:43;4.13;;;3.58;;
7737;SDS011;29398;45.328;5.558;2023-03-29T03:41:53;3.72;;;3.28;;
7737;SDS011;29398;45.328;5.558;2023-03-29T03:42:54;5.07;;;3.45;;
7737;SDS011;29398;45.328;5.558;2023-03-29T03:43:56;6.32;;;3.83;;
7737;SDS011;29398;45.328;5.558;2023-03-29T03:44:57;10.15;;;3.95;;
7737;SDS011;29398;45.328;5.558;2023-03-29T03:46:18;4.25;;;3.55;;
7737;SDS011;29398;45.328;5.558;2023-03-29T03:47:22;6.05;;;4.13;;
7737;SDS011;29398;45.328;5.558;2023-03-29T03:48:24;5.93;;;4.25;;
7737;SDS011;29398;45.328;5.558;2023-03-29T03:49:46;7.57;;;3.88;;
7737;SDS011;29398;45.328;5.558;2023-03-29T03:50:51;5.53;;;4.13;;
7737;SDS011;29398;45.328;5.558;2023-03-29T03:51:54;5.72;;;3.95;;
7737;SDS011;29398;45.328;5.558;2023-03-29T03:52:56;4.63;;;4.07;;
7737;SDS011;29398;45.328;5.558;2023-03-29T03:53:57;5.72;;;4.32;;
7737;SDS011;29398;45.328;5.558;2023-03-29T03:55:05;6.88;;;4.32;;
7737;SDS011;29398;45.328;5.558;2023-03-29T03:56:16;5.15;;;3.90;;
7737;SDS011;29398;45.328;5.558;2023-03-29T03:57:42;5.05;;;3.60;;
7737;SDS011;29398;45.328;5.558;2023-03-29T03:58:48;4.00;;;3.10;;
7737;SDS011;29398;45.328;5.558;2023-03-29T03:59:52;5.13;;;3.80;;
7737;SDS011;29398;45.328;5.558;2023-03-29T04:01:00;5.07;;;3.83;;
7737;SDS011;29398;45.328;5.558;2023-03-29T04:02:12;7.85;;;4.20;;
7737;SDS011;29398;45.328;5.558;2023-03-29T04:03:17;4.63;;;3.72;;
7737;SDS011;29398;45.328;5.558;2023-03-29T04:04:18;6.53;;;4.47;;
7737;SDS011;29398;45.328;5.558;2023-03-29T04:05:37;5.25;;;4.00;;
7737;SDS011;29398;45.328;5.558;2023-03-29T04:06:40;5.03;;;3.72;;
7737;SDS011;29398;45.328;5.558;2023-03-29T04:08:07;4.68;;;3.53;;
7737;SDS011;29398;45.328;5.558;2023-03-29T04:09:30;4.53;;;3.70;;
7737;SDS011;29398;45.328;5.558;2023-03-29T04:10:50;5.15;;;3.60;;
7737;SDS011;29398;45.328;5.558;2023-03-29T04:11:58;4.65;;;3.60;;
7737;SDS011;29398;45.328;5.558;2023-03-29T04:13:01;6.43;;;3.85;;
7737;SDS011;29398;45.328;5.558;2023-03-29T04:14:04;4.50;;;3.42;;
7737;SDS011;29398;45.328;5.558;2023-03-29T04:15:33;4.53;;;3.60;;
7737;SDS011;29398;45.328;5.558;2023-03-29T04:16:40;4.93;;;3.85;;
7737;SDS011;29398;45.328;5.558;2023-03-29T04:18:11;4.75;;;3.95;;
7737;SDS011;29398;45.328;5.558;2023-03-29T04:19:21;4.03;;;3.22;;
7737;SDS011;29398;45.328;5.558;2023-03-29T04:20:23;3.78;;;3.38;;
7737;SDS011;29398;45.328;5.558;2023-03-29T04:21:26;6.55;;;3.92;;
7737;SDS011;29398;45.328;5.558;2023-03-29T04:22:27;4.00;;;3.60;;
7737;SDS011;29398;45.328;5.558;2023-03-29T04:23:29;3.83;;;3.42;;
7737;SDS011;29398;45.328;5.558;2023-03-29T04:24:32;4.18;;;3.78;;
7737;SDS011;29398;45.328;5.558;2023-03-29T04:25:52;5.45;;;3.85;;
7737;SDS011;29398;45.328;5.558;2023-03-29T04:27:19;6.57;;;4.10;;
7737;SDS011;29398;45.328;5.558;2023-03-29T04:28:21;4.10;;;3.70;;
7737;SDS011;29398;45.328;5.558;2023-03-29T04:29:36;4.15;;;3.78;;
7737;SDS011;29398;45.328;5.558;2023-03-29T04:30:50;4.47;;;3.97;;
7737;SDS011;29398;45.328;5.558;2023-03-29T04:32:27;4.50;;;3.60;;
7737;SDS011;29398;45.328;5.558;2023-03-29T04:33:33;5.95;;;3.55;;
7737;SDS011;29398;45.328;5.558;2023-03-29T04:34:36;4.40;;;3.50;;
7737;SDS011;29398;45.328;5.558;2023-03-29T04:35:39;5.82;;;3.63;;
7737;SDS011;29398;45.328;5.558;2023-03-29T04:36:45;4.10;;;3.70;;
7737;SDS011;29398;45.328;5.558;2023-03-29T04:37:53;5.68;;;3.88;;
7737;SDS011;29398;45.328;5.558;2023-03-29T04:38:55;5.82;;;3.97;;
7737;SDS011;29398;45.328;5.558;2023-03-29T04:40:02;4.35;;;3.67;;
7737;SDS011;29398;45.328;5.558;2023-03-29T04:41:13;4.18;;;3.78;;
7737;SDS011;29398;45.328;5.558;2023-03-29T04:42:34;3.92;;;3.50;;
7737;SDS011;29398;45.328;5.558;2023-03-29T04:43:36;5.78;;;3.70;;
7737;SDS011;29398;45.328;5.558;2023-03-29T04:44:52;6.30;;;3.70;;
7737;SDS011;29398;45.328;5.558;2023-03-29T04:46:05;4.40;;;3.60;;
7737;SDS011;29398;45.328;5.558;2023-03-29T04:47:33;4.10;;;3.50;;
7737;SDS011;29398;45.328;5.558;2023-03-29T04:48:43;5.13;;;3.80;;
7737;SDS011;29398;45.328;5.558;2023-03-29T04:49:47;4.93;;;3.35;;
7737;SDS011;29398;45.328;5.558;2023-03-29T04:50:57;4.75;;;3.95;;
7737;SDS011;29398;45.328;5.558;2023-03-29T04:52:00;5.25;;;3.80;;
7737;SDS011;29398;45.328;5.558;2023-03-29T04:53:04;4.53;;;4.03;;
7737;SDS011;29398;45.328;5.558;2023-03-29T04:54:06;4.75;;;3.90;;
7737;SDS011;29398;45.328;5.558;2023-03-29T04:55:34;4.63;;;3.92;;
7737;SDS011;29398;45.328;5.558;2023-03-29T04:56:38;4.40;;;4.00;;
7737;SDS011;29398;45.328;5.558;2023-03-29T04:58:05;6.22;;;3.95;;
7737;SDS011;29398;45.328;5.558;2023-03-29T04:59:09;7.60;;;3.47;;
7737;SDS011;29398;45.328;5.558;2023-03-29T05:00:11;4.68;;;3.90;;
7737;SDS011;29398;45.328;5.558;2023-03-29T05:01:33;6.15;;;4.63;;
7737;SDS011;29398;45.328;5.558;2023-03-29T05:02:34;8.80;;;6.45;;
7737;SDS011;29398;45.328;5.558;2023-03-29T05:03:36;9.52;;;7.05;;
7737;SDS011;29398;45.328;5.558;2023-03-29T05:04:50;8.82;;;7.53;;
7737;SDS011;29398;45.328;5.558;2023-03-29T05:05:52;8.80;;;6.75;;
7737;SDS011;29398;45.328;5.558;2023-03-29T05:06:55;7.32;;;6.18;;
7737;SDS011;29398;45.328;5.558;2023-03-29T05:07:56;7.97;;;5.80;;
7737;SDS011;29398;45.328;5.558;2023-03-29T05:09:06;7.23;;;5.87;;
7737;SDS011;29398;45.328;5.558;2023-03-29T05:10:24;7.03;;;5.72;;
7737;SDS011;29398;45.328;5.558;2023-03-29T05:11:27;6.30;;;5.70;;
7737;SDS011;29398;45.328;5.558;2023-03-29T05:12:29;5.82;;;4.90;;
7737;SDS011;29398;45.328;5.558;2023-03-29T05:13:32;6.57;;;4.97;;
7737;SDS011;29398;45.328;5.558;2023-03-29T05:14:33;5.20;;;4.70;;
7737;SDS011;29398;45.328;5.558;2023-03-29T05:15:35;5.22;;;4.57;;
7737;SDS011;29398;45.328;5.558;2023-03-29T05:16:36;5.45;;;4.65;;
7737;SDS011;29398;45.328;5.558;2023-03-29T05:17:40;6.03;;;4.40;;
7737;SDS011;29398;45.328;5.558;2023-03-29T05:18:44;4.43;;;3.90;;
7737;SDS011;29398;45.328;5.558;2023-03-29T05:19:47;5.00;;;3.83;;
7737;SDS011;29398;45.328;5.558;2023-03-29T05:20:51;6.18;;;4.05;;
7737;SDS011;29398;45.328;5.558;2023-03-29T05:21:54;4.90;;;3.85;;
7737;SDS011;29398;45.328;5.558;2023-03-29T05:22:57;4.72;;;3.53;;
7737;SDS011;29398;45.328;5.558;2023-03-29T05:24:18;3.97;;;3.25;;
7737;SDS011;29398;45.328;5.558;2023-03-29T05:25:27;5.38;;;3.80;;
7737;SDS011;29398;45.328;5.558;2023-03-29T05:26:30;3.90;;;3.50;;
7737;SDS011;29398;45.328;5.558;2023-03-29T05:27:33;4.28;;;3.67;;
7737;SDS011;29398;45.328;5.558;2023-03-29T05:28:40;5.55;;;3.67;;
7737;SDS011;29398;45.328;5.558;2023-03-29T05:29:43;3.97;;;3.60;;
7737;SDS011;29398;45.328;5.558;2023-03-29T05:31:02;5.10;;;3.75;;
7737;SDS011;29398;45.328;5.558;2023-03-29T05:32:07;5.35;;;4.68;;
7737;SDS011;29398;45.328;5.558;2023-03-29T05:33:09;6.22;;;4.68;;
7737;SDS011;29398;45.328;5.558;2023-03-29T05:34:12;6.10;;;5.07;;
7737;SDS011;29398;45.328;5.558;2023-03-29T05:35:19;7.53;;;6.50;;
7737;SDS011;29398;45.328;5.558;2023-03-29T05:36:24;7.45;;;6.75;;
7737;SDS011;29398;45.328;5.558;2023-03-29T05:37:27;8.45;;;7.50;;
7737;SDS011;29398;45.328;5.558;2023-03-29T05:38:33;9.15;;;7.03;;
7737;SDS011;29398;45.328;5.558;2023-03-29T05:39:36;8.90;;;8.05;;
7737;SDS011;29398;45.328;5.558;2023-03-29T05:40:38;8.88;;;6.68;;
7737;SDS011;29398;45.328;5.558;2023-03-29T05:42:01;8.00;;;6.55;;
7737;SDS011;29398;45.328;5.558;2023-03-29T05:43:06;7.53;;;5.47;;
7737;SDS011;29398;45.328;5.558;2023-03-29T05:44:08;7.30;;;5.20;;
7737;SDS011;29398;45.328;5.558;2023-03-29T05:45:12;8.23;;;5.10;;
7737;SDS011;29398;45.328;5.558;2023-03-29T05:46:14;7.88;;;5.00;;
7737;SDS011;29398;45.328;5.558;2023-03-29T05:47:22;7.97;;;4.88;;
7737;SDS011;29398;45.328;5.558;2023-03-29T05:48:24;8.88;;;5.15;;
7737;SDS011;29398;45.328;5.558;2023-03-29T05:49:26;6.45;;;4.80;;
7737;SDS011;29398;45.328;5.558;2023-03-29T05:50:45;11.57;;;8.98;;
7737;SDS011;29398;45.328;5.558;2023-03-29T05:51:49;90.78;;;53.05;;
7737;SDS011;29398;45.328;5.558;2023-03-29T05:52:56;153.98;;;88.72;;
7737;SDS011;29398;45.328;5.558;2023-03-29T05:53:58;134.40;;;76.78;;
7737;SDS011;29398;45.328;5.558;2023-03-29T05:55:00;124.60;;;72.38;;
7737;SDS011;29398;45.328;5.558;2023-03-29T05:56:02;97.70;;;56.42;;
7737;SDS011;29398;45.328;5.558;2023-03-29T05:57:04;84.55;;;48.42;;
7737;SDS011;29398;45.328;5.558;2023-03-29T05:58:06;76.28;;;45.13;;
7737;SDS011;29398;45.328;5.558;2023-03-29T05:59:09;55.92;;;35.20;;
7737;SDS011;29398;45.328;5.558;2023-03-29T06:00:11;42.55;;;26.35;;
7737;SDS011;29398;45.328;5.558;2023-03-29T06:01:19;31.90;;;20.58;;
7737;SDS011;29398;45.328;5.558;2023-03-29T06:02:33;20.80;;;13.25;;
7737;SDS011;29398;45.328;5.558;2023-03-29T06:03:37;19.00;;;12.10;;
7737;SDS011;29398;45.328;5.558;2023-03-29T06:04:38;17.77;;;10.38;;
7737;SDS011;29398;45.328;5.558;2023-03-29T06:05:56;15.25;;;8.63;;
7737;SDS011;29398;45.328;5.558;2023-03-29T06:07:01;11.77;;;7.97;;
7737;SDS011;29398;45.328;5.558;2023-03-29T06:08:04;12.85;;;7.78;;
7737;SDS011;29398;45.328;5.558;2023-03-29T06:09:21;10.43;;;6.57;;
7737;SDS011;29398;45.328;5.558;2023-03-29T06:10:35;8.93;;;6.40;;
7737;SDS011;29398;45.328;5.558;2023-03-29T06:12:06;9.07;;;5.72;;
7737;SDS011;29398;45.328;5.558;2023-03-29T06:13:12;10.73;;;5.93;;
7737;SDS011;29398;45.328;5.558;2023-03-29T06:14:14;9.38;;;5.80;;
7737;SDS011;29398;45.328;5.558;2023-03-29T06:15:23;7.18;;;5.30;;
7737;SDS011;29398;45.328;5.558;2023-03-29T06:16:30;6.47;;;5.25;;
7737;SDS011;29398;45.328;5.558;2023-03-29T06:17:32;9.55;;;5.43;;
7737;SDS011;29398;45.328;5.558;2023-03-29T06:18:35;9.80;;;5.35;;
7737;SDS011;29398;45.328;5.558;2023-03-29T06:19:39;7.20;;;5.18;;
7737;SDS011;29398;45.328;5.558;2023-03-29T06:20:41;7.93;;;5.20;;
7737;SDS011;29398;45.328;5.558;2023-03-29T06:21:47;5.47;;;4.75;;
7737;SDS011;29398;45.328;5.558;2023-03-29T06:22:55;8.35;;;5.15;;
7737;SDS011;29398;45.328;5.558;2023-03-29T06:23:57;6.10;;;5.05;;
7737;SDS011;29398;45.328;5.558;2023-03-29T06:25:01;7.45;;;4.82;;
7737;SDS011;29398;45.328;5.558;2023-03-29T06:26:06;5.38;;;4.47;;
7737;SDS011;29398;45.328;5.558;2023-03-29T06:27:12;8.32;;;5.03;;
7737;SDS011;29398;45.328;5.558;2023-03-29T06:28:14;6.90;;;4.90;;
7737;SDS011;29398;45.328;5.558;2023-03-29T06:29:16;8.55;;;4.57;;
7737;SDS011;29398;45.328;5.558;2023-03-29T06:30:20;6.15;;;4.30;;
7737;SDS011;29398;45.328;5.558;2023-03-29T06:31:25;5.22;;;4.30;;
7737;SDS011;29398;45.328;5.558;2023-03-29T06:32:27;6.43;;;4.40;;
7737;SDS011;29398;45.328;5.558;2023-03-29T06:33:33;6.47;;;4.60;;
7737;SDS011;29398;45.328;5.558;2023-03-29T06:34:46;6.38;;;5.00;;
7737;SDS011;29398;45.328;5.558;2023-03-29T06:36:11;7.40;;;5.00;;
7737;SDS011;29398;45.328;5.558;2023-03-29T06:37:15;6.38;;;4.90;;
7737;SDS011;29398;45.328;5.558;2023-03-29T06:38:23;8.20;;;5.18;;
7737;SDS011;29398;45.328;5.558;2023-03-29T06:39:33;15.98;;;6.68;;
7737;SDS011;29398;45.328;5.558;2023-03-29T06:40:59;7.75;;;4.80;;
7737;SDS011;29398;45.328;5.558;2023-03-29T06:42:07;7.50;;;5.07;;
7737;SDS011;29398;45.328;5.558;2023-03-29T06:43:33;6.57;;;4.72;;
7737;SDS011;29398;45.328;5.558;2023-03-29T06:44:40;6.85;;;4.80;;
7737;SDS011;29398;45.328;5.558;2023-03-29T06:45:52;5.15;;;3.97;;